sensor_id;sensor_type;location;lat;lon;timestamp;pressure;altitude;pressure_sealevel;temperature;humidity
23016;BME280;11674;52.428;13.584;2022-11-25T00:01:37;101303.78;;;5.94;75.43
23016;BME280;11674;52.428;13.584;2022-11-25T00:06:44;101309.16;;;6.01;75.30
23016;BME280;11674;52.428;13.584;2022-11-25T00:11:51;101310.59;;;6.03;75.36
23016;BME280;11674;52.428;13.584;2022-11-25T00:16:58;101311.53;;;6.09;75.42
23016;BME280;11674;52.428;13.584;2022-11-25T00:22:05;101298.09;;;6.12;75.34
23016;BME280;11674;52.428;13.584;2022-11-25T00:27:12;101293.69;;;6.11;75.32
23016;BME280;11674;52.428;13.584;2022-11-25T00:32:19;101301.41;;;6.14;75.50
23016;BME280;11674;52.428;13.584;2022-11-25T00:37:42;101300.69;;;6.19;75.33
23016;BME280;11674;52.428;13.584;2022-11-25T00:42:49;101312.06;;;6.22;75.29
23016;BME280;11674;52.428;13.584;2022-11-25T00:47:56;101312.28;;;6.21;75.28
23016;BME280;11674;52.428;13.584;2022-11-25T00:53:03;101313.94;;;6.22;75.18
23016;BME280;11674;52.428;13.584;2022-11-25T00:58:10;101309.53;;;6.21;75.29
23016;BME280;11674;52.428;13.584;2022-11-25T01:03:17;101311.44;;;6.20;75.18
23016;BME280;11674;52.428;13.584;2022-11-25T01:08:27;101315.88;;;6.21;75.31
23016;BME280;11674;52.428;13.584;2022-11-25T01:13:35;101318.28;;;6.18;75.35
23016;BME280;11674;52.428;13.584;2022-11-25T01:18:42;101315.88;;;6.21;75.36
23016;BME280;11674;52.428;13.584;2022-11-25T01:23:52;101315.94;;;6.26;75.30
23016;BME280;11674;52.428;13.584;2022-11-25T01:29:02;101320.75;;;6.31;75.39
23016;BME280;11674;52.428;13.584;2022-11-25T01:34:16;101310.06;;;6.34;75.21
23016;BME280;11674;52.428;13.584;2022-11-25T01:39:24;101306.19;;;6.35;75.47
23016;BME280;11674;52.428;13.584;2022-11-25T01:44:31;101297.69;;;6.37;75.40
23016;BME280;11674;52.428;13.584;2022-11-25T01:49:46;101301.03;;;6.39;75.39
23016;BME280;11674;52.428;13.584;2022-11-25T01:55:07;101295.50;;;6.39;75.52
23016;BME280;11674;52.428;13.584;2022-11-25T02:00:17;101302.72;;;6.40;75.56
23016;BME280;11674;52.428;13.584;2022-11-25T02:10:54;101278.16;;;6.38;75.50
23016;BME280;11674;52.428;13.584;2022-11-25T02:16:01;101283.44;;;6.40;75.54
23016;BME280;11674;52.428;13.584;2022-11-25T02:21:08;101286.19;;;6.40;75.45
23016;BME280;11674;52.428;13.584;2022-11-25T02:26:16;101286.19;;;6.40;75.30
23016;BME280;11674;52.428;13.584;2022-11-25T02:31:24;101284.50;;;6.39;75.42
23016;BME280;11674;52.428;13.584;2022-11-25T02:36:31;101271.97;;;6.31;75.39
23016;BME280;11674;52.428;13.584;2022-11-25T02:41:59;101269.41;;;6.25;75.44
23016;BME280;11674;52.428;13.584;2022-11-25T02:47:06;101275.72;;;6.25;75.38
23016;BME280;11674;52.428;13.584;2022-11-25T02:52:13;101288.16;;;6.28;75.37
23016;BME280;11674;52.428;13.584;2022-11-25T02:57:20;101282.56;;;6.23;75.41
23016;BME280;11674;52.428;13.584;2022-11-25T03:02:27;101274.06;;;6.24;75.51
23016;BME280;11674;52.428;13.584;2022-11-25T03:07:35;101281.00;;;6.27;75.45
23016;BME280;11674;52.428;13.584;2022-11-25T03:12:41;101290.44;;;6.31;75.75
23016;BME280;11674;52.428;13.584;2022-11-25T03:17:49;101291.63;;;6.35;75.50
23016;BME280;11674;52.428;13.584;2022-11-25T03:22:56;101305.38;;;6.35;75.48
23016;BME280;11674;52.428;13.584;2022-11-25T03:28:03;101291.34;;;6.36;75.52
23016;BME280;11674;52.428;13.584;2022-11-25T03:33:09;101299.13;;;6.39;75.64
23016;BME280;11674;52.428;13.584;2022-11-25T03:38:17;101305.97;;;6.37;75.52
23016;BME280;11674;52.428;13.584;2022-11-25T03:43:24;101294.47;;;6.40;75.57
23016;BME280;11674;52.428;13.584;2022-11-25T03:48:31;101305.19;;;6.41;75.55
23016;BME280;11674;52.428;13.584;2022-11-25T03:53:40;101308.28;;;6.45;75.53
23016;BME280;11674;52.428;13.584;2022-11-25T03:58:48;101311.72;;;6.52;75.76
23016;BME280;11674;52.428;13.584;2022-11-25T04:04:03;101309.31;;;6.55;75.53
23016;BME280;11674;52.428;13.584;2022-11-25T04:09:09;101308.78;;;6.58;75.61
23016;BME280;11674;52.428;13.584;2022-11-25T04:14:17;101311.06;;;6.61;75.63
23016;BME280;11674;52.428;13.584;2022-11-25T04:19:23;101315.22;;;6.64;75.61
23016;BME280;11674;52.428;13.584;2022-11-25T04:24:31;101313.03;;;6.66;75.74
23016;BME280;11674;52.428;13.584;2022-11-25T04:29:39;101312.56;;;6.69;75.63
23016;BME280;11674;52.428;13.584;2022-11-25T04:34:48;101318.56;;;6.66;75.64
23016;BME280;11674;52.428;13.584;2022-11-25T04:39:55;101316.41;;;6.68;75.72
23016;BME280;11674;52.428;13.584;2022-11-25T04:45:12;101330.69;;;6.65;75.53
23016;BME280;11674;52.428;13.584;2022-11-25T04:50:22;101341.47;;;6.66;75.70
23016;BME280;11674;52.428;13.584;2022-11-25T04:55:42;101342.88;;;6.69;75.76
23016;BME280;11674;52.428;13.584;2022-11-25T05:00:49;101340.69;;;6.71;75.59
23016;BME280;11674;52.428;13.584;2022-11-25T05:05:56;101334.94;;;6.72;75.55
23016;BME280;11674;52.428;13.584;2022-11-25T05:11:03;101331.09;;;6.73;75.65
23016;BME280;11674;52.428;13.584;2022-11-25T05:16:10;101326.66;;;6.72;75.74
23016;BME280;11674;52.428;13.584;2022-11-25T05:21:16;101336.78;;;6.67;75.76
23016;BME280;11674;52.428;13.584;2022-11-25T05:26:24;101333.09;;;6.61;75.74
23016;BME280;11674;52.428;13.584;2022-11-25T05:31:33;101340.28;;;6.62;75.75
23016;BME280;11674;52.428;13.584;2022-11-25T05:36:40;101340.59;;;6.66;75.87
23016;BME280;11674;52.428;13.584;2022-11-25T05:41:47;101347.28;;;6.70;75.72
23016;BME280;11674;52.428;13.584;2022-11-25T05:46:54;101351.47;;;6.72;75.71
23016;BME280;11674;52.428;13.584;2022-11-25T05:52:01;101346.91;;;6.78;75.83
23016;BME280;11674;52.428;13.584;2022-11-25T05:57:16;101353.31;;;6.83;75.78
23016;BME280;11674;52.428;13.584;2022-11-25T06:02:49;101358.34;;;6.86;75.76
23016;BME280;11674;52.428;13.584;2022-11-25T06:07:57;101366.34;;;6.88;75.75
23016;BME280;11674;52.428;13.584;2022-11-25T06:13:05;101354.56;;;6.92;75.68
23016;BME280;11674;52.428;13.584;2022-11-25T06:18:15;101355.66;;;6.91;75.66
23016;BME280;11674;52.428;13.584;2022-11-25T06:23:24;101363.66;;;6.93;75.62
23016;BME280;11674;52.428;13.584;2022-11-25T06:28:31;101359.84;;;6.94;75.59
23016;BME280;11674;52.428;13.584;2022-11-25T06:33:39;101349.22;;;6.86;75.62
23016;BME280;11674;52.428;13.584;2022-11-25T06:38:51;101354.81;;;6.74;75.68
23016;BME280;11674;52.428;13.584;2022-11-25T06:43:58;101357.66;;;6.63;75.71
23016;BME280;11674;52.428;13.584;2022-11-25T06:49:05;101354.97;;;6.51;75.50
23016;BME280;11674;52.428;13.584;2022-11-25T06:54:12;101354.97;;;6.35;75.61
23016;BME280;11674;52.428;13.584;2022-11-25T06:59:20;101365.19;;;6.23;75.42
23016;BME280;11674;52.428;13.584;2022-11-25T07:04:28;101370.03;;;6.16;75.64
23016;BME280;11674;52.428;13.584;2022-11-25T07:09:34;101381.63;;;6.18;75.65
23016;BME280;11674;52.428;13.584;2022-11-25T07:14:42;101378.38;;;6.21;75.64
23016;BME280;11674;52.428;13.584;2022-11-25T07:19:48;101387.22;;;6.23;75.59
23016;BME280;11674;52.428;13.584;2022-11-25T07:24:55;101395.00;;;6.26;75.71
23016;BME280;11674;52.428;13.584;2022-11-25T07:30:03;101408.88;;;6.31;75.67
23016;BME280;11674;52.428;13.584;2022-11-25T07:35:09;101403.47;;;6.36;75.65
23016;BME280;11674;52.428;13.584;2022-11-25T07:40:17;101410.41;;;6.38;75.70
23016;BME280;11674;52.428;13.584;2022-11-25T07:45:23;101433.16;;;6.34;75.72
23016;BME280;11674;52.428;13.584;2022-11-25T07:50:40;101435.09;;;6.33;75.81
23016;BME280;11674;52.428;13.584;2022-11-25T07:55:48;101428.75;;;6.33;75.83
23016;BME280;11674;52.428;13.584;2022-11-25T08:00:55;101418.56;;;6.33;75.91
23016;BME280;11674;52.428;13.584;2022-11-25T08:06:13;101410.06;;;6.35;75.76
23016;BME280;11674;52.428;13.584;2022-11-25T08:11:23;101409.09;;;6.41;75.94
23016;BME280;11674;52.428;13.584;2022-11-25T08:16:31;101410.59;;;6.48;75.92
23016;BME280;11674;52.428;13.584;2022-11-25T08:21:38;101425.63;;;6.57;75.83
23016;BME280;11674;52.428;13.584;2022-11-25T08:26:45;101431.22;;;6.62;75.98
23016;BME280;11674;52.428;13.584;2022-11-25T08:31:53;101423.47;;;6.76;76.01
23016;BME280;11674;52.428;13.584;2022-11-25T08:37:00;101422.31;;;6.88;76.02
23016;BME280;11674;52.428;13.584;2022-11-25T08:42:07;101425.81;;;7.00;76.01
23016;BME280;11674;52.428;13.584;2022-11-25T08:47:14;101423.84;;;7.12;75.88
23016;BME280;11674;52.428;13.584;2022-11-25T08:52:21;101431.44;;;7.22;76.05
23016;BME280;11674;52.428;13.584;2022-11-25T08:57:29;101438.94;;;7.26;76.03
23016;BME280;11674;52.428;13.584;2022-11-25T09:02:36;101438.34;;;7.41;76.13
23016;BME280;11674;52.428;13.584;2022-11-25T09:07:43;101451.03;;;7.58;76.22
23016;BME280;11674;52.428;13.584;2022-11-25T09:12:50;101458.69;;;7.73;76.20
23016;BME280;11674;52.428;13.584;2022-11-25T09:18:04;101441.63;;;7.76;76.17
23016;BME280;11674;52.428;13.584;2022-11-25T09:23:12;101447.13;;;7.76;76.30
23016;BME280;11674;52.428;13.584;2022-11-25T09:28:20;101451.88;;;7.80;76.12
23016;BME280;11674;52.428;13.584;2022-11-25T09:33:27;101453.59;;;7.81;76.03
23016;BME280;11674;52.428;13.584;2022-11-25T09:38:33;101442.06;;;7.89;76.14
23016;BME280;11674;52.428;13.584;2022-11-25T09:54:43;101440.63;;;8.25;76.31
23016;BME280;11674;52.428;13.584;2022-11-25T10:05:56;101437.53;;;8.43;76.40
23016;BME280;11674;52.428;13.584;2022-11-25T10:11:01;101432.47;;;8.61;76.31
23016;BME280;11674;52.428;13.584;2022-11-25T10:21:30;101424.03;;;8.78;76.29
23016;BME280;11674;52.428;13.584;2022-11-25T10:26:50;101426.31;;;8.81;76.21
23016;BME280;11674;52.428;13.584;2022-11-25T10:32:25;101427.72;;;8.83;76.27
23016;BME280;11674;52.428;13.584;2022-11-25T10:37:39;101420.63;;;8.66;75.74
23016;BME280;11674;52.428;13.584;2022-11-25T10:42:49;101422.47;;;8.60;76.39
23016;BME280;11674;52.428;13.584;2022-11-25T10:48:06;101427.00;;;8.71;76.40
23016;BME280;11674;52.428;13.584;2022-11-25T10:53:20;101420.31;;;8.94;76.29
23016;BME280;11674;52.428;13.584;2022-11-25T10:58:34;101429.38;;;9.21;76.48
23016;BME280;11674;52.428;13.584;2022-11-25T11:03:45;101427.03;;;9.39;76.40
23016;BME280;11674;52.428;13.584;2022-11-25T11:08:57;101438.44;;;9.48;76.07
23016;BME280;11674;52.428;13.584;2022-11-25T11:19:22;101434.47;;;9.29;75.76
23016;BME280;11674;52.428;13.584;2022-11-25T11:24:33;101429.78;;;9.34;76.42
23016;BME280;11674;52.428;13.584;2022-11-25T11:29:40;101425.97;;;9.45;76.24
23016;BME280;11674;52.428;13.584;2022-11-25T11:35:04;101425.72;;;9.47;76.32
23016;BME280;11674;52.428;13.584;2022-11-25T11:50:38;101421.69;;;9.23;76.13
23016;BME280;11674;52.428;13.584;2022-11-25T12:06:26;101408.91;;;9.22;76.12
23016;BME280;11674;52.428;13.584;2022-11-25T12:11:39;101410.72;;;9.43;76.25
23016;BME280;11674;52.428;13.584;2022-11-25T12:16:55;101409.34;;;9.45;75.96
23016;BME280;11674;52.428;13.584;2022-11-25T12:22:31;101401.00;;;9.40;75.76
23016;BME280;11674;52.428;13.584;2022-11-25T12:38:04;101400.34;;;9.23;75.89
23016;BME280;11674;52.428;13.584;2022-11-25T12:48:50;101396.44;;;9.19;75.40
23016;BME280;11674;52.428;13.584;2022-11-25T13:05:19;101402.13;;;9.03;75.79
23016;BME280;11674;52.428;13.584;2022-11-25T13:16:10;101400.53;;;9.07;75.78
23016;BME280;11674;52.428;13.584;2022-11-25T13:21:17;101401.34;;;9.07;75.88
23016;BME280;11674;52.428;13.584;2022-11-25T13:32:03;101412.00;;;8.94;75.70
23016;BME280;11674;52.428;13.584;2022-11-25T13:37:36;101418.34;;;8.89;75.84
23016;BME280;11674;52.428;13.584;2022-11-25T13:42:44;101414.22;;;8.92;75.82
23016;BME280;11674;52.428;13.584;2022-11-25T13:47:51;101433.59;;;8.92;75.69
23016;BME280;11674;52.428;13.584;2022-11-25T13:53:05;101428.63;;;8.94;75.85
23016;BME280;11674;52.428;13.584;2022-11-25T13:58:25;101438.94;;;9.03;75.74
23016;BME280;11674;52.428;13.584;2022-11-25T14:09:01;101449.75;;;9.05;75.71
23016;BME280;11674;52.428;13.584;2022-11-25T14:25:26;101446.44;;;8.76;75.81
23016;BME280;11674;52.428;13.584;2022-11-25T14:30:33;101455.88;;;8.80;75.83
23016;BME280;11674;52.428;13.584;2022-11-25T14:35:50;101453.06;;;8.75;75.66
23016;BME280;11674;52.428;13.584;2022-11-25T14:41:05;101463.56;;;8.73;75.62
23016;BME280;11674;52.428;13.584;2022-11-25T14:46:19;101461.63;;;8.74;75.54
23016;BME280;11674;52.428;13.584;2022-11-25T14:51:33;101470.97;;;8.68;75.61
23016;BME280;11674;52.428;13.584;2022-11-25T14:56:41;101475.06;;;8.65;75.54
23016;BME280;11674;52.428;13.584;2022-11-25T15:01:53;101475.63;;;8.62;75.59
23016;BME280;11674;52.428;13.584;2022-11-25T15:07:00;101478.88;;;8.59;75.50
23016;BME280;11674;52.428;13.584;2022-11-25T15:12:13;101492.41;;;8.56;75.46
23016;BME280;11674;52.428;13.584;2022-11-25T15:22:35;101498.44;;;8.53;75.68
23016;BME280;11674;52.428;13.584;2022-11-25T15:27:43;101503.66;;;8.49;75.54
23016;BME280;11674;52.428;13.584;2022-11-25T15:32:52;101503.59;;;8.44;75.68
23016;BME280;11674;52.428;13.584;2022-11-25T15:39:01;101512.09;;;8.38;75.70
23016;BME280;11674;52.428;13.584;2022-11-25T15:43:51;101505.78;;;8.42;75.67
23016;BME280;11674;52.428;13.584;2022-11-25T15:49:05;101506.03;;;8.41;75.73
23016;BME280;11674;52.428;13.584;2022-11-25T15:54:23;101502.53;;;8.45;75.66
23016;BME280;11674;52.428;13.584;2022-11-25T15:59:40;101502.25;;;8.47;75.76
23016;BME280;11674;52.428;13.584;2022-11-25T16:04:48;101509.19;;;8.49;75.65
23016;BME280;11674;52.428;13.584;2022-11-25T16:09:55;101499.78;;;8.50;75.69
23016;BME280;11674;52.428;13.584;2022-11-25T16:15:02;101504.50;;;8.50;75.70
23016;BME280;11674;52.428;13.584;2022-11-25T16:20:18;101510.03;;;8.50;75.68
23016;BME280;11674;52.428;13.584;2022-11-25T16:25:25;101508.09;;;8.50;75.75
23016;BME280;11674;52.428;13.584;2022-11-25T16:30:32;101513.38;;;8.52;75.77
23016;BME280;11674;52.428;13.584;2022-11-25T16:35:39;101513.13;;;8.53;75.73
23016;BME280;11674;52.428;13.584;2022-11-25T16:40:53;101522.25;;;8.54;75.85
23016;BME280;11674;52.428;13.584;2022-11-25T16:46:00;101521.41;;;8.53;75.75
23016;BME280;11674;52.428;13.584;2022-11-25T16:51:17;101523.84;;;8.50;75.76
23016;BME280;11674;52.428;13.584;2022-11-25T16:56:27;101524.97;;;8.49;75.74
23016;BME280;11674;52.428;13.584;2022-11-25T17:01:34;101523.06;;;8.54;75.92
23016;BME280;11674;52.428;13.584;2022-11-25T17:06:41;101530.88;;;8.57;75.84
23016;BME280;11674;52.428;13.584;2022-11-25T17:11:50;101531.69;;;8.58;75.71
23016;BME280;11674;52.428;13.584;2022-11-25T17:16:58;101533.38;;;8.59;75.82
23016;BME280;11674;52.428;13.584;2022-11-25T17:22:17;101536.97;;;8.59;75.76
23016;BME280;11674;52.428;13.584;2022-11-25T17:27:28;101541.94;;;8.57;75.82
23016;BME280;11674;52.428;13.584;2022-11-25T17:32:36;101543.34;;;8.60;75.82
23016;BME280;11674;52.428;13.584;2022-11-25T17:37:43;101547.50;;;8.62;75.97
23016;BME280;11674;52.428;13.584;2022-11-25T17:42:50;101556.63;;;8.63;75.76
23016;BME280;11674;52.428;13.584;2022-11-25T17:47:57;101559.41;;;8.63;75.85
23016;BME280;11674;52.428;13.584;2022-11-25T17:53:04;101563.50;;;8.60;75.81
23016;BME280;11674;52.428;13.584;2022-11-25T17:58:11;101562.44;;;8.61;75.89
23016;BME280;11674;52.428;13.584;2022-11-25T18:03:19;101574.56;;;8.60;75.88
23016;BME280;11674;52.428;13.584;2022-11-25T18:08:26;101578.69;;;8.58;75.87
23016;BME280;11674;52.428;13.584;2022-11-25T18:13:38;101577.63;;;8.59;75.86
23016;BME280;11674;52.428;13.584;2022-11-25T18:18:46;101579.78;;;8.57;75.86
23016;BME280;11674;52.428;13.584;2022-11-25T18:23:53;101588.94;;;8.57;75.92
23016;BME280;11674;52.428;13.584;2022-11-25T18:29:01;101590.78;;;8.52;75.77
23016;BME280;11674;52.428;13.584;2022-11-25T18:34:13;101600.19;;;8.51;75.89
23016;BME280;11674;52.428;13.584;2022-11-25T18:39:27;101595.41;;;8.46;75.78
23016;BME280;11674;52.428;13.584;2022-11-25T18:44:35;101603.41;;;8.43;75.72
23016;BME280;11674;52.428;13.584;2022-11-25T18:49:42;101603.81;;;8.35;75.79
23016;BME280;11674;52.428;13.584;2022-11-25T18:54:49;101610.38;;;8.29;75.64
23016;BME280;11674;52.428;13.584;2022-11-25T18:59:56;101615.56;;;8.25;75.83
23016;BME280;11674;52.428;13.584;2022-11-25T19:10:27;101622.69;;;8.21;75.82
23016;BME280;11674;52.428;13.584;2022-11-25T19:15:35;101630.38;;;8.19;75.71
23016;BME280;11674;52.428;13.584;2022-11-25T19:20:42;101638.44;;;8.21;75.69
23016;BME280;11674;52.428;13.584;2022-11-25T19:25:49;101640.94;;;8.22;75.76
23016;BME280;11674;52.428;13.584;2022-11-25T19:30:59;101646.78;;;8.26;75.64
23016;BME280;11674;52.428;13.584;2022-11-25T19:36:25;101655.63;;;8.23;75.82
23016;BME280;11674;52.428;13.584;2022-11-25T19:41:32;101656.09;;;8.20;76.06
23016;BME280;11674;52.428;13.584;2022-11-25T19:46:43;101670.13;;;8.18;76.28
23016;BME280;11674;52.428;13.584;2022-11-25T19:51:51;101674.75;;;8.13;76.93
23016;BME280;11674;52.428;13.584;2022-11-25T19:56:58;101683.91;;;8.13;77.54
23016;BME280;11674;52.428;13.584;2022-11-25T20:02:28;101683.91;;;8.13;77.92
23016;BME280;11674;52.428;13.584;2022-11-25T20:07:36;101692.19;;;8.13;78.29
23016;BME280;11674;52.428;13.584;2022-11-25T20:12:44;101695.53;;;8.15;78.57
23016;BME280;11674;52.428;13.584;2022-11-25T20:17:53;101697.44;;;8.15;78.65
23016;BME280;11674;52.428;13.584;2022-11-25T20:23:04;101708.50;;;8.15;78.76
23016;BME280;11674;52.428;13.584;2022-11-25T20:33:28;101725.84;;;8.10;79.17
23016;BME280;11674;52.428;13.584;2022-11-25T20:38:35;101728.28;;;8.07;79.29
23016;BME280;11674;52.428;13.584;2022-11-25T20:43:46;101731.53;;;8.04;79.50
23016;BME280;11674;52.428;13.584;2022-11-25T20:48:56;101739.56;;;8.05;79.46
23016;BME280;11674;52.428;13.584;2022-11-25T20:54:05;101744.75;;;8.02;79.56
23016;BME280;11674;52.428;13.584;2022-11-25T20:59:20;101749.19;;;8.03;79.72
23016;BME280;11674;52.428;13.584;2022-11-25T21:04:28;101747.28;;;8.03;79.57
23016;BME280;11674;52.428;13.584;2022-11-25T21:09:35;101760.00;;;8.04;79.85
23016;BME280;11674;52.428;13.584;2022-11-25T21:14:42;101763.09;;;8.08;79.87
23016;BME280;11674;52.428;13.584;2022-11-25T21:19:49;101761.75;;;8.10;79.81
23016;BME280;11674;52.428;13.584;2022-11-25T21:24:56;101771.47;;;8.13;79.94
23016;BME280;11674;52.428;13.584;2022-11-25T21:30:03;101772.06;;;8.15;79.91
23016;BME280;11674;52.428;13.584;2022-11-25T21:35:11;101775.16;;;8.18;80.03
23016;BME280;11674;52.428;13.584;2022-11-25T21:40:35;101786.00;;;8.20;80.06
23016;BME280;11674;52.428;13.584;2022-11-25T21:45:46;101788.50;;;8.21;80.09
23016;BME280;11674;52.428;13.584;2022-11-25T21:50:53;101783.84;;;8.22;80.10
23016;BME280;11674;52.428;13.584;2022-11-25T21:56:00;101792.72;;;8.24;80.11
23016;BME280;11674;52.428;13.584;2022-11-25T22:01:08;101797.13;;;8.25;80.34
23016;BME280;11674;52.428;13.584;2022-11-25T22:06:27;101793.66;;;8.29;80.23
23016;BME280;11674;52.428;13.584;2022-11-25T22:11:37;101796.41;;;8.29;80.04
23016;BME280;11674;52.428;13.584;2022-11-25T22:16:45;101808.28;;;8.30;80.13
23016;BME280;11674;52.428;13.584;2022-11-25T22:21:52;101811.91;;;8.30;80.17
23016;BME280;11674;52.428;13.584;2022-11-25T22:26:59;101818.25;;;8.31;80.24
23016;BME280;11674;52.428;13.584;2022-11-25T22:32:09;101822.72;;;8.32;80.33
23016;BME280;11674;52.428;13.584;2022-11-25T22:37:23;101833.25;;;8.35;80.46
23016;BME280;11674;52.428;13.584;2022-11-25T22:42:30;101837.44;;;8.37;80.17
23016;BME280;11674;52.428;13.584;2022-11-25T22:47:40;101839.72;;;8.40;80.29
23016;BME280;11674;52.428;13.584;2022-11-25T22:52:48;101845.50;;;8.39;80.34
23016;BME280;11674;52.428;13.584;2022-11-25T22:57:58;101850.78;;;8.40;80.31
23016;BME280;11674;52.428;13.584;2022-11-25T23:03:13;101848.59;;;8.42;80.64
23016;BME280;11674;52.428;13.584;2022-11-25T23:08:27;101853.56;;;8.40;81.19
23016;BME280;11674;52.428;13.584;2022-11-25T23:13:34;101860.75;;;8.41;81.41
23016;BME280;11674;52.428;13.584;2022-11-25T23:18:45;101861.09;;;8.45;81.59
23016;BME280;11674;52.428;13.584;2022-11-25T23:23:52;101863.59;;;8.46;81.75
23016;BME280;11674;52.428;13.584;2022-11-25T23:28:59;101873.81;;;8.46;81.75
23016;BME280;11674;52.428;13.584;2022-11-25T23:34:06;101872.25;;;8.50;82.19
23016;BME280;11674;52.428;13.584;2022-11-25T23:39:21;101873.50;;;8.59;82.31
23016;BME280;11674;52.428;13.584;2022-11-25T23:44:30;101884.66;;;8.64;82.33
23016;BME280;11674;52.428;13.584;2022-11-25T23:49:42;101885.81;;;8.68;82.51
23016;BME280;11674;52.428;13.584;2022-11-25T23:54:50;101894.28;;;8.78;83.01
23016;BME280;11674;52.428;13.584;2022-11-25T23:59:58;101901.19;;;8.92;83.22
